DLH804 EDDF-ESSA
Flight info
| Callsign | DLH804 |
|---|---|
| Flight time | N/A |
| Altitude | 37000 |
| Route | MARUN7F MARUN Y150 TOLGI DCT OBATU DCT BERIM DCT ROSOK DCT SONAL DCT VIBAR Z227 NILUG |
| Aircraft | A320/M-SDE3FGHIRWY/LB1 |
Departure
| Time | 2026-05-06 11:48 |
|---|---|
| Airport | Frankfurt Main Airport (EDDF) |
Arrival
| Time | N/A |
|---|---|
| Airport | Stockholm-Arlanda Airport (ESSA) |
| Time | Latitude | Longitude | Altitude | Speed | Heading |
|---|---|---|---|---|---|
| 2026-05-06 10:45 | 50.04403 | 8.56222 | 364 ft | 0 kts | 159° |
| 2026-05-06 11:36 | 50.04425 | 8.56210 | 365 ft | 3 kts | 160° |
| 2026-05-06 11:36 | 50.04446 | 8.56200 | 367 ft | 4 kts | 177° |
| 2026-05-06 11:36 | 50.04472 | 8.56210 | 368 ft | 4 kts | 233° |
| 2026-05-06 11:37 | 50.04478 | 8.56228 | 365 ft | 1 kts | 250° |
| 2026-05-06 11:37 | 50.04479 | 8.56230 | 365 ft | 0 kts | 250° |
| 2026-05-06 11:39 | 50.04479 | 8.56229 | 365 ft | 1 kts | 250° |
| 2026-05-06 11:39 | 50.04460 | 8.56151 | 364 ft | 11 kts | 250° |
| 2026-05-06 11:40 | 50.04426 | 8.56038 | 365 ft | 12 kts | 225° |
| 2026-05-06 11:40 | 50.04341 | 8.56057 | 366 ft | 14 kts | 160° |
| 2026-05-06 11:40 | 50.04290 | 8.56152 | 366 ft | 10 kts | 84° |
| 2026-05-06 11:40 | 50.04264 | 8.56224 | 364 ft | 8 kts | 153° |
| 2026-05-06 11:41 | 50.04205 | 8.56260 | 366 ft | 10 kts | 159° |
| 2026-05-06 11:41 | 50.04148 | 8.56305 | 364 ft | 10 kts | 127° |
| 2026-05-06 11:41 | 50.04156 | 8.56403 | 367 ft | 9 kts | 68° |
| 2026-05-06 11:41 | 50.04182 | 8.56510 | 363 ft | 15 kts | 70° |
| 2026-05-06 11:42 | 50.04212 | 8.56635 | 369 ft | 8 kts | 69° |
| 2026-05-06 11:42 | 50.04217 | 8.56658 | 372 ft | 0 kts | 70° |
| 2026-05-06 11:44 | 50.04229 | 8.56709 | 368 ft | 11 kts | 70° |
| 2026-05-06 11:44 | 50.04258 | 8.56828 | 368 ft | 11 kts | 69° |
| 2026-05-06 11:45 | 50.04294 | 8.56980 | 366 ft | 18 kts | 69° |
| 2026-05-06 11:45 | 50.04337 | 8.57158 | 365 ft | 17 kts | 69° |
| 2026-05-06 11:45 | 50.04376 | 8.57321 | 367 ft | 15 kts | 70° |
| 2026-05-06 11:45 | 50.04411 | 8.57470 | 365 ft | 14 kts | 70° |
| 2026-05-06 11:46 | 50.04425 | 8.57593 | 364 ft | 11 kts | 105° |
| 2026-05-06 11:46 | 50.04377 | 8.57662 | 367 ft | 10 kts | 159° |
| 2026-05-06 11:46 | 50.04304 | 8.57704 | 364 ft | 12 kts | 160° |
| 2026-05-06 11:46 | 50.04265 | 8.57656 | 367 ft | 8 kts | 237° |
| 2026-05-06 11:47 | 50.04228 | 8.57505 | 366 ft | 32 kts | 249° |
| 2026-05-06 11:47 | 50.04133 | 8.57112 | 370 ft | 81 kts | 250° |
| 2026-05-06 11:47 | 50.03863 | 8.55986 | 366 ft | 139 kts | 249° |
| 2026-05-06 11:47 | 50.03473 | 8.54378 | 755 ft | 156 kts | 247° |
| 2026-05-06 11:48 | 50.03098 | 8.52797 | 1557 ft | 155 kts | 247° |
| 2026-05-06 11:48 | 50.02699 | 8.51147 | 2098 ft | 169 kts | 245° |
| 2026-05-06 11:48 | 50.02036 | 8.49540 | 2440 ft | 189 kts | 225° |
| 2026-05-06 11:48 | 50.00934 | 8.48366 | 2971 ft | 198 kts | 203° |
| 2026-05-06 11:49 | 49.99565 | 8.47883 | 3675 ft | 200 kts | 191° |
| 2026-05-06 11:49 | 49.98180 | 8.47574 | 4358 ft | 202 kts | 190° |
| 2026-05-06 11:49 | 49.96777 | 8.47262 | 4994 ft | 205 kts | 191° |
| 2026-05-06 11:49 | 49.95374 | 8.46767 | 5549 ft | 213 kts | 199° |
| 2026-05-06 11:50 | 49.93880 | 8.46069 | 5987 ft | 235 kts | 198° |
| 2026-05-06 11:50 | 49.92328 | 8.45168 | 6797 ft | 240 kts | 213° |
| 2026-05-06 11:50 | 49.91136 | 8.43319 | 7715 ft | 243 kts | 240° |
| 2026-05-06 11:50 | 49.90640 | 8.40830 | 8739 ft | 249 kts | 266° |
| 2026-05-06 11:51 | 49.90973 | 8.38154 | 9700 ft | 258 kts | 294° |
| 2026-05-06 11:51 | 49.92181 | 8.35999 | 10571 ft | 271 kts | 324° |
| 2026-05-06 11:51 | 49.93902 | 8.34717 | 11292 ft | 287 kts | 334° |
| 2026-05-06 11:51 | 49.95824 | 8.33458 | 11643 ft | 311 kts | 334° |
| 2026-05-06 11:52 | 49.97911 | 8.32116 | 11923 ft | 335 kts | 335° |
| 2026-05-06 11:52 | 50.00132 | 8.30690 | 12218 ft | 354 kts | 335° |
| 2026-05-06 11:52 | 50.02531 | 8.29462 | 12827 ft | 365 kts | 345° |
| 2026-05-06 11:52 | 50.05077 | 8.29012 | 13540 ft | 373 kts | 358° |
| 2026-05-06 11:53 | 50.07679 | 8.29400 | 14177 ft | 380 kts | 11° |
| 2026-05-06 11:53 | 50.10234 | 8.30582 | 14836 ft | 384 kts | 18° |
| 2026-05-06 11:53 | 50.12773 | 8.31918 | 15512 ft | 388 kts | 18° |
| 2026-05-06 11:53 | 50.15342 | 8.33269 | 16171 ft | 391 kts | 18° |
| 2026-05-06 11:54 | 50.17966 | 8.34646 | 16829 ft | 395 kts | 18° |
| 2026-05-06 11:54 | 50.20563 | 8.36007 | 17442 ft | 399 kts | 18° |
| 2026-05-06 11:54 | 50.23238 | 8.37409 | 18083 ft | 403 kts | 18° |
| 2026-05-06 11:54 | 50.25911 | 8.38813 | 18615 ft | 407 kts | 18° |
| 2026-05-06 11:55 | 50.28611 | 8.40237 | 19147 ft | 410 kts | 18° |
| 2026-05-06 11:55 | 50.31320 | 8.41678 | 19665 ft | 414 kts | 18° |
| 2026-05-06 11:55 | 50.34047 | 8.43157 | 20191 ft | 417 kts | 18° |
| 2026-05-06 11:55 | 50.36858 | 8.44700 | 20664 ft | 422 kts | 18° |
| 2026-05-06 11:56 | 50.39672 | 8.46250 | 21133 ft | 427 kts | 17° |
| 2026-05-06 11:56 | 50.42491 | 8.47805 | 21622 ft | 431 kts | 17° |
| 2026-05-06 11:56 | 50.45321 | 8.49361 | 22097 ft | 434 kts | 17° |
| 2026-05-06 11:56 | 50.48192 | 8.50925 | 22600 ft | 438 kts | 17° |
| 2026-05-06 11:57 | 50.51135 | 8.52425 | 23101 ft | 441 kts | 15° |
| 2026-05-06 11:57 | 50.54082 | 8.53832 | 23541 ft | 444 kts | 14° |
| 2026-05-06 11:57 | 50.57106 | 8.55226 | 23975 ft | 446 kts | 14° |
| 2026-05-06 11:57 | 50.60051 | 8.56572 | 24374 ft | 449 kts | 14° |
| 2026-05-06 11:58 | 50.63061 | 8.57968 | 24773 ft | 451 kts | 14° |
| 2026-05-06 11:58 | 50.66117 | 8.59413 | 25170 ft | 453 kts | 14° |
| 2026-05-06 11:58 | 50.69123 | 8.60860 | 25576 ft | 456 kts | 15° |
| 2026-05-06 11:58 | 50.72183 | 8.62347 | 25960 ft | 458 kts | 15° |
| 2026-05-06 11:59 | 50.75234 | 8.63830 | 26357 ft | 460 kts | 15° |
| 2026-05-06 11:59 | 50.78288 | 8.65623 | 26735 ft | 464 kts | 24° |
| 2026-05-06 11:59 | 50.81121 | 8.68141 | 27105 ft | 468 kts | 33° |
| 2026-05-06 11:59 | 50.83686 | 8.71333 | 27479 ft | 471 kts | 43° |
| 2026-05-06 12:00 | 50.85934 | 8.75156 | 27849 ft | 473 kts | 52° |
| 2026-05-06 12:00 | 50.87924 | 8.79291 | 28185 ft | 475 kts | 53° |
| 2026-05-06 12:00 | 50.89948 | 8.83515 | 28535 ft | 477 kts | 53° |
| 2026-05-06 12:00 | 50.91960 | 8.87722 | 28867 ft | 480 kts | 53° |
| 2026-05-06 12:01 | 50.94006 | 8.92001 | 29197 ft | 482 kts | 53° |
| 2026-05-06 12:01 | 50.96037 | 8.96252 | 29523 ft | 483 kts | 53° |
| 2026-05-06 12:01 | 50.98068 | 9.00510 | 29829 ft | 485 kts | 53° |
| 2026-05-06 12:01 | 50.99419 | 9.03352 | 30026 ft | 486 kts | 53° |
| 2026-05-06 12:02 | 51.01468 | 9.07673 | 30458 ft | 483 kts | 53° |
| 2026-05-06 12:02 | 51.03461 | 9.11887 | 30857 ft | 482 kts | 53° |
| 2026-05-06 12:02 | 51.05496 | 9.16199 | 31198 ft | 481 kts | 54° |
| 2026-05-06 12:02 | 51.07569 | 9.20374 | 31528 ft | 481 kts | 48° |
| 2026-05-06 12:03 | 51.09999 | 9.24051 | 31866 ft | 482 kts | 38° |
| 2026-05-06 12:03 | 51.12759 | 9.27065 | 32192 ft | 481 kts | 28° |
| 2026-05-06 12:03 | 51.15814 | 9.29378 | 32546 ft | 480 kts | 19° |
| 2026-05-06 12:03 | 51.19003 | 9.30884 | 32864 ft | 478 kts | 10° |
| 2026-05-06 12:04 | 51.22261 | 9.31993 | 33208 ft | 478 kts | 11° |
| 2026-05-06 12:04 | 51.25514 | 9.33112 | 33575 ft | 478 kts | 11° |
| 2026-05-06 12:04 | 51.28772 | 9.34242 | 33881 ft | 478 kts | 11° |
| 2026-05-06 12:04 | 51.32021 | 9.35374 | 34154 ft | 479 kts | 11° |
| 2026-05-06 12:05 | 51.35306 | 9.36519 | 34448 ft | 479 kts | 11° |
| 2026-05-06 12:05 | 51.38565 | 9.37659 | 34730 ft | 478 kts | 11° |
| 2026-05-06 12:05 | 51.41821 | 9.38804 | 35013 ft | 478 kts | 11° |
| 2026-05-06 12:05 | 51.45069 | 9.39944 | 35307 ft | 478 kts | 11° |
| 2026-05-06 12:06 | 51.48657 | 9.41198 | 35629 ft | 477 kts | 11° |
| 2026-05-06 12:06 | 51.51603 | 9.42227 | 35872 ft | 477 kts | 11° |
| 2026-05-06 12:06 | 51.54888 | 9.43378 | 36135 ft | 477 kts | 11° |
| 2026-05-06 12:06 | 51.58085 | 9.44502 | 36366 ft | 477 kts | 11° |
| 2026-05-06 12:07 | 51.61330 | 9.45643 | 36606 ft | 477 kts | 11° |
| 2026-05-06 12:07 | 51.64576 | 9.46785 | 36764 ft | 478 kts | 11° |
| 2026-05-06 12:07 | 51.71087 | 9.49080 | 36794 ft | 478 kts | 11° |
| 2026-05-06 12:08 | 51.77583 | 9.51382 | 36801 ft | 478 kts | 11° |
| 2026-05-06 12:08 | 51.83947 | 9.54533 | 36809 ft | 480 kts | 25° |
| 2026-05-06 12:09 | 51.89718 | 9.59980 | 36816 ft | 481 kts | 31° |
| 2026-05-06 12:09 | 51.95426 | 9.65625 | 36820 ft | 481 kts | 31° |
| 2026-05-06 12:10 | 52.01146 | 9.71285 | 36820 ft | 481 kts | 31° |
| 2026-05-06 12:10 | 52.06836 | 9.76937 | 36822 ft | 482 kts | 31° |
| 2026-05-06 12:11 | 52.12561 | 9.82636 | 36844 ft | 482 kts | 31° |
| 2026-05-06 12:11 | 52.18263 | 9.88353 | 36842 ft | 480 kts | 31° |
| 2026-05-06 12:12 | 52.23954 | 9.94081 | 36830 ft | 480 kts | 31° |
| 2026-05-06 12:12 | 52.29650 | 9.99811 | 36823 ft | 480 kts | 31° |
| 2026-05-06 12:13 | 52.35317 | 10.05534 | 36833 ft | 480 kts | 31° |
| 2026-05-06 12:13 | 52.41000 | 10.11303 | 36836 ft | 480 kts | 31° |
| 2026-05-06 12:14 | 52.46685 | 10.17082 | 36840 ft | 480 kts | 31° |
| 2026-05-06 12:14 | 52.52368 | 10.22869 | 36839 ft | 480 kts | 31° |
| 2026-05-06 12:15 | 52.58029 | 10.28662 | 36852 ft | 480 kts | 31° |
| 2026-05-06 12:15 | 52.63715 | 10.34490 | 36834 ft | 481 kts | 31° |
| 2026-05-06 12:16 | 52.69392 | 10.40332 | 36831 ft | 481 kts | 32° |
| 2026-05-06 12:16 | 52.75088 | 10.46147 | 36840 ft | 481 kts | 31° |
| 2026-05-06 12:17 | 52.80809 | 10.51858 | 36849 ft | 481 kts | 31° |
| 2026-05-06 12:17 | 52.86581 | 10.57644 | 36848 ft | 481 kts | 31° |
| 2026-05-06 12:18 | 52.92293 | 10.63432 | 36845 ft | 481 kts | 31° |
| 2026-05-06 12:18 | 52.98011 | 10.69249 | 36855 ft | 481 kts | 31° |
| 2026-05-06 12:19 | 53.03726 | 10.75085 | 36837 ft | 481 kts | 31° |
| 2026-05-06 12:19 | 53.09461 | 10.80942 | 36842 ft | 482 kts | 31° |
| 2026-05-06 12:20 | 53.15175 | 10.86800 | 36844 ft | 482 kts | 31° |
| 2026-05-06 12:20 | 53.20883 | 10.92674 | 36844 ft | 482 kts | 31° |
| 2026-05-06 12:21 | 53.26582 | 10.98553 | 36855 ft | 482 kts | 31° |
| 2026-05-06 12:21 | 53.32286 | 11.04460 | 36857 ft | 482 kts | 31° |
| 2026-05-06 12:22 | 53.37985 | 11.10389 | 36863 ft | 481 kts | 31° |
| 2026-05-06 12:22 | 53.43713 | 11.16360 | 36868 ft | 481 kts | 31° |
| 2026-05-06 12:23 | 53.49433 | 11.22337 | 36876 ft | 480 kts | 32° |
| 2026-05-06 12:23 | 53.55098 | 11.28278 | 36873 ft | 480 kts | 32° |
| 2026-05-06 12:24 | 53.60776 | 11.34246 | 36877 ft | 480 kts | 32° |
| 2026-05-06 12:24 | 53.66438 | 11.40221 | 36874 ft | 480 kts | 32° |
| 2026-05-06 12:25 | 53.72097 | 11.46220 | 36889 ft | 480 kts | 32° |
| 2026-05-06 12:25 | 53.77613 | 11.52607 | 36879 ft | 480 kts | 36° |
| 2026-05-06 12:26 | 53.82926 | 11.59404 | 36866 ft | 479 kts | 38° |
| 2026-05-06 12:26 | 53.87321 | 11.65094 | 36871 ft | 479 kts | 37° |
| 2026-05-06 12:27 | 53.92663 | 11.71853 | 36886 ft | 479 kts | 36° |
| 2026-05-06 12:27 | 53.98044 | 11.78556 | 36894 ft | 479 kts | 36° |
| 2026-05-06 12:28 | 54.03405 | 11.85282 | 36896 ft | 479 kts | 37° |
| 2026-05-06 12:28 | 54.08755 | 11.92060 | 36896 ft | 479 kts | 37° |
| 2026-05-06 12:29 | 54.14092 | 11.98851 | 36894 ft | 479 kts | 37° |
| 2026-05-06 12:29 | 54.19468 | 12.05715 | 36907 ft | 479 kts | 37° |
| 2026-05-06 12:30 | 54.25103 | 12.11918 | 36904 ft | 479 kts | 31° |
| 2026-05-06 12:30 | 54.30825 | 12.17818 | 36907 ft | 479 kts | 31° |
| 2026-05-06 12:31 | 54.36532 | 12.23741 | 36920 ft | 479 kts | 31° |
| 2026-05-06 12:31 | 54.42238 | 12.29696 | 36915 ft | 479 kts | 31° |
| 2026-05-06 12:32 | 54.47949 | 12.35672 | 36920 ft | 479 kts | 31° |
| 2026-05-06 12:32 | 54.53652 | 12.41663 | 36926 ft | 480 kts | 31° |
| 2026-05-06 12:33 | 54.59346 | 12.47662 | 36920 ft | 480 kts | 31° |
| 2026-05-06 12:33 | 54.65050 | 12.53679 | 36937 ft | 480 kts | 31° |
| 2026-05-06 12:34 | 54.70739 | 12.59704 | 36933 ft | 480 kts | 31° |
| 2026-05-06 12:34 | 54.76409 | 12.65737 | 36926 ft | 480 kts | 31° |
| 2026-05-06 12:35 | 54.82135 | 12.71840 | 36933 ft | 480 kts | 31° |
| 2026-05-06 12:35 | 54.87790 | 12.77906 | 36939 ft | 480 kts | 32° |
| 2026-05-06 12:36 | 54.93354 | 12.84393 | 36940 ft | 481 kts | 35° |
| 2026-05-06 12:36 | 54.98764 | 12.91230 | 36938 ft | 481 kts | 36° |
| 2026-05-06 12:37 | 55.04175 | 12.98096 | 36944 ft | 481 kts | 36° |
| 2026-05-06 12:37 | 55.09629 | 13.04868 | 36955 ft | 481 kts | 35° |
| 2026-05-06 12:38 | 55.15110 | 13.11624 | 36946 ft | 482 kts | 35° |
| 2026-05-06 12:38 | 55.20577 | 13.18409 | 36950 ft | 482 kts | 35° |
| 2026-05-06 12:39 | 55.26047 | 13.25255 | 36947 ft | 483 kts | 35° |
| 2026-05-06 12:39 | 55.31497 | 13.32112 | 36945 ft | 483 kts | 36° |
| 2026-05-06 12:40 | 55.36959 | 13.39000 | 36944 ft | 483 kts | 35° |
| 2026-05-06 12:40 | 55.42414 | 13.45885 | 36932 ft | 483 kts | 36° |
| 2026-05-06 12:41 | 55.47865 | 13.52792 | 36939 ft | 482 kts | 36° |
| 2026-05-06 12:41 | 55.53315 | 13.59722 | 36943 ft | 482 kts | 36° |
| 2026-05-06 12:42 | 55.58714 | 13.66618 | 36967 ft | 482 kts | 36° |
| 2026-05-06 12:42 | 55.64157 | 13.73597 | 36962 ft | 483 kts | 36° |
| 2026-05-06 12:43 | 55.69595 | 13.80580 | 36964 ft | 483 kts | 36° |
| 2026-05-06 12:43 | 55.75032 | 13.87582 | 36969 ft | 483 kts | 36° |
| 2026-05-06 12:44 | 55.80465 | 13.94625 | 36974 ft | 483 kts | 36° |
| 2026-05-06 12:44 | 55.85887 | 14.01695 | 36968 ft | 484 kts | 36° |
| 2026-05-06 12:45 | 55.91324 | 14.08790 | 36961 ft | 484 kts | 36° |
| 2026-05-06 12:46 | 55.99481 | 14.19471 | 36960 ft | 484 kts | 36° |
| 2026-05-06 12:46 | 56.04900 | 14.26610 | 36970 ft | 485 kts | 36° |
| 2026-05-06 12:47 | 56.10340 | 14.33794 | 36959 ft | 486 kts | 36° |
| 2026-05-06 12:47 | 56.15781 | 14.40986 | 36939 ft | 486 kts | 36° |
| 2026-05-06 12:48 | 56.21207 | 14.48209 | 36954 ft | 486 kts | 37° |
| 2026-05-06 12:48 | 56.26638 | 14.55472 | 36970 ft | 486 kts | 36° |
| 2026-05-06 12:49 | 56.32027 | 14.62696 | 36951 ft | 486 kts | 37° |
| 2026-05-06 12:49 | 56.37455 | 14.70004 | 36948 ft | 487 kts | 37° |
| 2026-05-06 12:50 | 56.42913 | 14.77375 | 36949 ft | 487 kts | 37° |
| 2026-05-06 12:50 | 56.48305 | 14.84666 | 36950 ft | 487 kts | 37° |
| 2026-05-06 12:51 | 56.53743 | 14.92051 | 36953 ft | 488 kts | 37° |
| 2026-05-06 12:51 | 56.59169 | 14.99458 | 36943 ft | 489 kts | 37° |
| 2026-05-06 12:52 | 56.64639 | 15.06954 | 36948 ft | 490 kts | 37° |
| 2026-05-06 12:52 | 56.70077 | 15.14437 | 36952 ft | 490 kts | 37° |
| 2026-05-06 12:53 | 56.75513 | 15.21939 | 36959 ft | 491 kts | 37° |
| 2026-05-06 12:53 | 56.80957 | 15.29478 | 36954 ft | 491 kts | 37° |
| 2026-05-06 12:54 | 56.86390 | 15.37038 | 36955 ft | 492 kts | 37° |
| 2026-05-06 12:54 | 56.91840 | 15.44639 | 36941 ft | 492 kts | 37° |
| 2026-05-06 12:55 | 56.97271 | 15.52243 | 36974 ft | 492 kts | 37° |
| 2026-05-06 12:55 | 57.02718 | 15.59905 | 36961 ft | 493 kts | 37° |
| 2026-05-06 12:56 | 57.03604 | 15.61154 | 36960 ft | 494 kts | 37° |